createdAt,value
2022-12-01T00:01:20.116Z,9.55
2022-12-01T00:03:47.672Z,9.57
2022-12-01T00:06:17.309Z,9.52
2022-12-01T00:09:05.754Z,8.73
2022-12-01T00:11:34.511Z,8.82
2022-12-01T00:14:02.085Z,8.98
2022-12-01T00:16:29.722Z,8.93
2022-12-01T00:18:57.351Z,7.78
2022-12-01T00:21:25.769Z,8.68
2022-12-01T00:23:55.141Z,8.88
2022-12-01T00:26:23.529Z,8.55
2022-12-01T00:28:51.743Z,8.65
2022-12-01T00:31:19.588Z,9.43
2022-12-01T00:33:47.220Z,8.43
2022-12-01T00:36:14.675Z,10.05
2022-12-01T00:38:42.050Z,8.85
2022-12-01T00:41:09.731Z,9.00
2022-12-01T00:43:37.180Z,8.75
2022-12-01T00:46:04.617Z,8.93
2022-12-01T00:48:32.250Z,9.57
2022-12-01T00:50:59.549Z,10.07
2022-12-01T00:53:26.869Z,9.23
2022-12-01T00:55:54.482Z,9.07
2022-12-01T00:58:22.659Z,9.55
2022-12-01T01:00:50.131Z,8.52
2022-12-01T01:03:17.766Z,9.68
2022-12-01T01:05:45.088Z,9.57
2022-12-01T01:08:14.931Z,9.85
2022-12-01T01:10:45.052Z,9.52
2022-12-01T01:13:13.448Z,9.90
2022-12-01T01:15:41.090Z,9.93
2022-12-01T01:18:10.426Z,10.48
2022-12-01T01:20:37.773Z,10.02
2022-12-01T01:23:05.095Z,10.23
2022-12-01T01:25:32.885Z,10.02
2022-12-01T01:28:00.199Z,10.35
2022-12-01T01:30:27.761Z,9.85
2022-12-01T01:32:55.684Z,9.45
2022-12-01T01:35:23.004Z,9.57
2022-12-01T01:37:50.977Z,10.30
2022-12-01T01:40:18.829Z,10.30
2022-12-01T01:42:46.337Z,11.48
2022-12-01T01:45:21.257Z,11.93
2022-12-01T01:47:50.171Z,10.85
2022-12-01T01:50:19.808Z,11.40
2022-12-01T01:52:51.829Z,11.85
2022-12-01T01:55:19.641Z,10.45
2022-12-01T01:57:46.997Z,10.48
2022-12-01T02:00:17.349Z,9.68
2022-12-01T02:02:46.692Z,10.35
2022-12-01T02:05:23.748Z,10.57
2022-12-01T02:07:52.512Z,10.23
2022-12-01T02:10:23.497Z,11.60
2022-12-01T02:13:26.958Z,12.15
2022-12-01T02:16:12.995Z,11.52
2022-12-01T02:18:57.332Z,11.60
2022-12-01T02:21:54.649Z,11.60
2022-12-01T02:24:46.933Z,11.43
2022-12-01T02:27:45.562Z,12.13
2022-12-01T02:30:37.658Z,12.23
2022-12-01T02:33:14.328Z,12.40
2022-12-01T02:35:56.156Z,12.90
2022-12-01T02:38:38.660Z,12.80
2022-12-01T02:41:23.145Z,12.15
2022-12-01T02:44:14.609Z,12.77
2022-12-01T02:46:46.805Z,12.55
2022-12-01T02:49:17.551Z,14.95
2022-12-01T02:51:45.346Z,14.75
2022-12-01T02:54:14.719Z,13.52
2022-12-01T02:56:44.908Z,15.00
2022-12-01T02:59:14.092Z,13.02
2022-12-01T03:02:00.039Z,12.98
2022-12-01T03:04:45.684Z,12.93
2022-12-01T03:07:36.451Z,11.38
2022-12-01T03:10:29.597Z,11.10
2022-12-01T03:13:28.170Z,11.75
2022-12-01T03:16:07.201Z,10.88
2022-12-01T03:18:54.896Z,10.60
2022-12-01T03:21:25.190Z,10.88
2022-12-01T03:24:02.062Z,11.90
2022-12-01T03:26:30.389Z,10.73
2022-12-01T03:29:06.733Z,10.73
2022-12-01T03:31:40.898Z,9.98
2022-12-01T03:34:13.684Z,10.18
2022-12-01T03:36:48.294Z,9.50
2022-12-01T03:41:52.027Z,10.13
2022-12-01T03:44:21.969Z,9.60
2022-12-01T03:46:56.898Z,10.00
2022-12-01T03:49:25.770Z,10.77
2022-12-01T03:51:59.273Z,10.00
2022-12-01T03:55:05.492Z,10.02
2022-12-01T04:00:02.997Z,0.93
2022-12-01T04:02:40.394Z,9.45
2022-12-01T04:05:11.369Z,9.35
2022-12-01T04:07:39.377Z,9.10
2022-12-01T04:10:07.529Z,9.45
2022-12-01T04:12:35.220Z,9.32
2022-12-01T04:15:11.143Z,9.65
2022-12-01T04:17:39.239Z,9.05
2022-12-01T04:20:07.673Z,9.10
2022-12-01T04:22:35.000Z,9.35
2022-12-01T04:25:03.669Z,9.38
2022-12-01T04:27:31.023Z,8.85
2022-12-01T04:29:58.352Z,8.68
2022-12-01T04:32:27.143Z,9.05
2022-12-01T04:34:54.430Z,9.45
2022-12-01T04:37:21.851Z,9.30
2022-12-01T04:39:49.690Z,8.77
2022-12-01T04:42:17.205Z,8.43
2022-12-01T04:44:44.517Z,8.63
2022-12-01T04:47:12.090Z,9.68
2022-12-01T04:49:39.376Z,10.82
2022-12-01T04:52:07.499Z,10.90
2022-12-01T04:54:35.126Z,10.18
2022-12-01T04:57:02.436Z,10.30
2022-12-01T04:59:29.826Z,9.05
2022-12-01T05:01:57.484Z,9.20
2022-12-01T05:04:24.832Z,9.00
2022-12-01T05:06:54.413Z,9.43
2022-12-01T05:09:22.017Z,9.75
2022-12-01T05:11:49.317Z,9.38
2022-12-01T05:14:16.635Z,9.90
2022-12-01T05:16:44.222Z,9.95
2022-12-01T05:19:30.491Z,10.02
2022-12-01T05:21:58.058Z,9.90
2022-12-01T05:24:25.740Z,11.43
2022-12-01T05:26:53.044Z,12.40
2022-12-01T05:29:20.624Z,10.57
2022-12-01T05:31:49.014Z,10.60
2022-12-01T05:34:16.506Z,11.20
2022-12-01T05:36:44.079Z,11.10
2022-12-01T05:39:11.387Z,10.05
2022-12-01T05:41:38.716Z,10.32
2022-12-01T05:44:06.300Z,10.55
2022-12-01T05:46:33.635Z,11.35
2022-12-01T05:49:00.944Z,10.43
2022-12-01T05:51:28.508Z,10.40
2022-12-01T05:53:55.812Z,11.82
2022-12-01T05:56:23.130Z,11.55
2022-12-01T05:58:50.684Z,12.27
2022-12-01T06:01:18.098Z,11.05
2022-12-01T06:03:45.735Z,10.63
2022-12-01T06:06:13.055Z,10.68
2022-12-01T06:08:40.411Z,3.42
2022-12-01T06:11:07.993Z,31.48
2022-12-01T06:13:35.340Z,14.40
2022-12-01T06:16:05.385Z,14.07
2022-12-01T06:18:35.217Z,11.75
2022-12-01T06:21:03.011Z,11.88
2022-12-01T06:23:30.859Z,12.25
2022-12-01T06:25:58.848Z,12.05
2022-12-01T06:28:26.180Z,12.40
2022-12-01T06:30:57.772Z,12.43
2022-12-01T06:33:28.804Z,12.25
2022-12-01T06:36:02.997Z,14.80
2022-12-01T06:38:31.577Z,11.95
2022-12-01T06:40:59.110Z,13.13
2022-12-01T06:43:26.692Z,12.50
2022-12-01T06:46:00.808Z,13.20
2022-12-01T06:48:28.885Z,15.45
2022-12-01T06:51:00.201Z,16.65
2022-12-01T06:53:28.703Z,15.20
2022-12-01T06:56:00.987Z,13.62
2022-12-01T06:58:28.687Z,13.77
2022-12-01T07:00:57.417Z,15.98
2022-12-01T07:03:24.836Z,15.65
2022-12-01T07:05:58.588Z,16.17
2022-12-01T07:08:30.285Z,15.98
2022-12-01T07:11:02.608Z,15.73
2022-12-01T07:13:33.695Z,14.30
2022-12-01T07:16:03.112Z,16.10
2022-12-01T07:18:31.416Z,15.13
2022-12-01T07:21:03.711Z,16.20
2022-12-01T07:23:31.748Z,14.65
2022-12-01T07:26:07.795Z,14.68
2022-12-01T07:28:35.404Z,15.65
2022-12-01T07:31:09.110Z,16.27
2022-12-01T07:33:36.930Z,16.93
2022-12-01T07:36:04.841Z,16.77
2022-12-01T07:38:33.582Z,49.22
2022-12-01T07:41:03.347Z,24.85
2022-12-01T07:43:31.987Z,27.77
2022-12-01T07:46:10.743Z,27.02
2022-12-01T07:48:39.355Z,18.17
2022-12-01T07:51:08.247Z,15.90
2022-12-01T07:53:35.797Z,14.82
2022-12-01T07:56:08.525Z,13.62
2022-12-01T07:58:36.620Z,15.02
2022-12-01T08:01:09.413Z,14.65
2022-12-01T08:03:37.451Z,12.75
2022-12-01T08:06:05.904Z,13.10
2022-12-01T08:08:35.051Z,12.48
2022-12-01T08:11:06.521Z,16.65
2022-12-01T08:13:33.907Z,0.60
2022-12-01T08:16:05.465Z,16.67
2022-12-01T08:18:39.980Z,19.08
2022-12-01T08:21:09.173Z,14.82
2022-12-01T08:23:36.915Z,14.18
2022-12-01T08:26:08.299Z,13.40
2022-12-01T08:28:36.323Z,12.55
2022-12-01T08:31:10.949Z,13.25
2022-12-01T08:33:38.296Z,10.45
2022-12-01T08:36:06.489Z,10.23
2022-12-01T08:38:33.871Z,10.15
2022-12-01T08:41:03.025Z,11.27
2022-12-01T08:46:18.069Z,10.93
2022-12-01T08:48:45.691Z,10.02
2022-12-01T08:51:15.542Z,9.98
2022-12-01T08:53:45.860Z,9.73
2022-12-01T08:56:21.212Z,10.18
2022-12-01T08:58:48.616Z,10.05
2022-12-01T09:01:16.910Z,10.80
2022-12-01T09:03:44.758Z,9.88
2022-12-01T09:06:22.806Z,10.57
2022-12-01T09:08:50.488Z,10.38
2022-12-01T09:11:18.990Z,11.52
2022-12-01T09:13:52.944Z,11.40
2022-12-01T09:16:22.327Z,10.75
2022-12-01T09:18:49.744Z,10.10
2022-12-01T09:21:26.635Z,8.85
2022-12-01T09:23:54.287Z,9.23
2022-12-01T09:26:22.140Z,11.07
2022-12-01T09:28:54.029Z,9.10
2022-12-01T09:31:23.523Z,10.15
2022-12-01T09:33:56.329Z,10.05
2022-12-01T09:36:24.324Z,9.68
2022-12-01T09:38:51.765Z,8.80
2022-12-01T09:41:26.308Z,9.00
2022-12-01T09:44:01.022Z,8.98
2022-12-01T09:46:34.763Z,8.65
2022-12-01T09:49:03.888Z,8.95
2022-12-01T09:51:36.112Z,8.63
2022-12-01T09:54:04.086Z,8.63
2022-12-01T09:56:36.444Z,8.73
2022-12-01T09:59:08.098Z,8.55
2022-12-01T10:01:41.870Z,9.43
2022-12-01T10:04:13.276Z,8.98
2022-12-01T10:06:54.607Z,10.05
2022-12-01T10:10:00.121Z,9.00
2022-12-01T10:12:33.390Z,9.38
2022-12-01T10:15:25.357Z,9.45
2022-12-01T10:18:13.728Z,10.43
2022-12-01T10:20:45.847Z,9.70
2022-12-01T10:23:41.805Z,8.70
2022-12-01T10:26:26.206Z,9.40
2022-12-01T10:29:27.874Z,10.00
2022-12-01T10:32:00.561Z,9.07
2022-12-01T10:34:30.649Z,9.30
2022-12-01T10:36:58.431Z,9.68
2022-12-01T10:39:30.002Z,8.95
2022-12-01T10:42:08.273Z,10.10
2022-12-01T10:44:36.149Z,9.23
2022-12-01T10:47:04.163Z,10.20
2022-12-01T10:49:40.125Z,9.32
2022-12-01T10:52:08.324Z,10.15
2022-12-01T10:54:40.670Z,8.82
2022-12-01T10:57:15.585Z,11.00
2022-12-01T11:00:02.267Z,9.85
2022-12-01T11:02:32.185Z,10.25
2022-12-01T11:05:05.305Z,10.25
2022-12-01T11:07:36.086Z,10.57
2022-12-01T11:10:17.675Z,11.55
2022-12-01T11:12:53.387Z,13.32
2022-12-01T11:15:27.167Z,12.52
2022-12-01T11:18:22.721Z,12.47
2022-12-01T11:21:15.116Z,10.90
2022-12-01T11:23:50.823Z,10.63
2022-12-01T11:26:33.011Z,11.20
2022-12-01T11:29:03.585Z,12.23
2022-12-01T11:31:42.606Z,10.35
2022-12-01T11:34:20.063Z,11.20
2022-12-01T11:36:50.391Z,10.95
2022-12-01T11:39:38.515Z,10.60
2022-12-01T11:42:25.097Z,11.10
2022-12-01T11:45:05.578Z,11.25
2022-12-01T11:47:32.953Z,10.60
2022-12-01T11:50:23.966Z,10.68
2022-12-01T11:52:51.260Z,10.35
2022-12-01T11:55:26.965Z,10.65
2022-12-01T11:57:57.500Z,11.50
2022-12-01T12:00:28.390Z,10.13
2022-12-01T12:03:20.011Z,10.52
2022-12-01T12:06:38.340Z,11.00
2022-12-01T12:09:16.246Z,12.18
2022-12-01T12:12:01.700Z,10.40
2022-12-01T12:14:36.077Z,11.77
2022-12-01T12:17:20.154Z,11.45
2022-12-01T12:20:07.643Z,10.90
2022-12-01T12:22:41.818Z,11.25
2022-12-01T12:25:23.296Z,11.50
2022-12-01T12:28:06.028Z,10.98
2022-12-01T12:30:50.925Z,9.88
2022-12-01T12:33:44.382Z,11.40
2022-12-01T12:36:35.914Z,11.50
2022-12-01T12:39:22.168Z,10.43
2022-12-01T12:41:52.629Z,10.15
2022-12-01T12:44:49.631Z,10.00
2022-12-01T12:48:14.422Z,9.60
2022-12-01T12:51:03.493Z,10.15
2022-12-01T12:53:40.399Z,12.35
2022-12-01T12:56:13.018Z,9.98
2022-12-01T12:58:53.761Z,10.55
2022-12-01T13:01:26.597Z,9.52
2022-12-01T13:04:00.705Z,14.63
2022-12-01T13:06:50.283Z,12.57
2022-12-01T13:09:22.142Z,9.93
2022-12-01T13:12:08.629Z,10.13
2022-12-01T13:14:39.991Z,11.18
2022-12-01T13:17:17.251Z,10.63
2022-12-01T13:19:45.908Z,10.05
2022-12-01T13:22:14.374Z,9.55
2022-12-01T13:24:42.052Z,10.57
2022-12-01T13:27:09.660Z,11.23
2022-12-01T13:29:47.757Z,10.63
2022-12-01T13:32:33.791Z,11.02
2022-12-01T13:35:05.528Z,10.25
2022-12-01T13:37:35.776Z,10.00
2022-12-01T13:40:22.949Z,10.48
2022-12-01T13:43:10.508Z,9.70
2022-12-01T13:45:40.225Z,10.48
2022-12-01T13:48:27.672Z,11.68
2022-12-01T13:50:57.784Z,12.63
2022-12-01T13:53:28.442Z,14.27
2022-12-01T13:56:04.529Z,14.27
2022-12-01T13:58:35.130Z,15.93
2022-12-01T14:01:21.107Z,13.18
2022-12-01T14:04:18.486Z,15.68
2022-12-01T14:06:50.758Z,17.35
2022-12-01T14:09:31.967Z,14.40
2022-12-01T14:12:03.001Z,13.77
2022-12-01T14:14:39.697Z,14.15
2022-12-01T14:17:24.355Z,16.52
2022-12-01T14:19:52.598Z,13.77
2022-12-01T14:22:39.973Z,11.52
2022-12-01T14:25:19.906Z,13.10
2022-12-01T14:27:59.777Z,14.90
2022-12-01T14:30:39.611Z,12.40
2022-12-01T14:33:47.501Z,12.88
2022-12-01T14:36:17.933Z,11.95
2022-12-01T14:38:46.468Z,11.88
2022-12-01T14:41:25.820Z,10.88
2022-12-01T14:44:03.847Z,11.48
2022-12-01T14:46:42.637Z,11.40
2022-12-01T14:49:17.923Z,11.70
2022-12-01T14:51:47.678Z,11.48
2022-12-01T14:54:19.561Z,11.35
2022-12-01T14:56:48.424Z,13.18
2022-12-01T14:59:22.139Z,15.23
2022-12-01T15:01:51.684Z,18.33
2022-12-01T15:04:19.821Z,21.95
2022-12-01T15:06:47.463Z,26.08
2022-12-01T15:09:36.019Z,25.77
2022-12-01T15:12:08.869Z,23.38
2022-12-01T15:14:38.817Z,21.62
2022-12-01T15:17:08.885Z,15.60
2022-12-01T15:19:38.748Z,15.27
2022-12-01T15:22:17.185Z,14.82
2022-12-01T15:24:45.779Z,15.32
2022-12-01T15:27:31.230Z,14.13
2022-12-01T15:30:03.466Z,12.73
2022-12-01T15:32:32.969Z,12.32
2022-12-01T15:35:05.387Z,12.10
2022-12-01T15:37:42.625Z,11.35
2022-12-01T15:43:07.384Z,12.93
2022-12-01T15:45:51.547Z,14.80
2022-12-01T15:48:34.752Z,18.15
2022-12-01T15:51:18.293Z,17.17
2022-12-01T15:53:50.056Z,17.90
2022-12-01T15:56:25.220Z,18.70
2022-12-01T15:58:56.888Z,19.77
2022-12-01T16:01:30.130Z,17.77
2022-12-01T16:04:03.769Z,19.52
2022-12-01T16:06:34.154Z,20.73
2022-12-01T16:09:16.609Z,20.70
2022-12-01T16:12:04.114Z,26.62
2022-12-01T16:14:35.006Z,28.48
2022-12-01T16:17:03.065Z,29.30
2022-12-01T16:19:32.178Z,28.83
2022-12-01T16:22:12.081Z,38.78
2022-12-01T16:24:46.771Z,42.90
2022-12-01T16:27:29.070Z,43.67
2022-12-01T16:30:02.117Z,43.25
2022-12-01T16:32:39.716Z,44.00
2022-12-01T16:35:27.362Z,77.80
2022-12-01T16:37:55.404Z,69.45
2022-12-01T16:40:23.746Z,67.25
2022-12-01T16:42:51.034Z,71.80
2022-12-01T16:45:19.320Z,74.12
2022-12-01T16:47:49.600Z,59.15
2022-12-01T16:50:19.591Z,59.03
2022-12-01T16:52:47.343Z,56.92
2022-12-01T16:55:52.692Z,50.00
2022-12-01T16:58:20.976Z,43.75
2022-12-01T17:00:52.797Z,43.15
2022-12-01T17:03:22.980Z,41.97
2022-12-01T17:05:50.828Z,37.88
2022-12-01T17:08:18.312Z,38.97
2022-12-01T17:10:49.761Z,34.78
2022-12-01T17:13:23.472Z,30.92
2022-12-01T17:15:54.271Z,31.65
2022-12-01T17:18:23.634Z,30.62
2022-12-01T17:21:03.143Z,29.87
2022-12-01T17:23:33.036Z,28.60
2022-12-01T17:26:01.377Z,27.70
2022-12-01T17:28:29.636Z,34.80
2022-12-01T17:31:01.529Z,40.92
2022-12-01T17:33:29.603Z,40.67
2022-12-01T17:36:01.767Z,51.20
2022-12-01T17:38:29.487Z,48.87
2022-12-01T17:41:11.418Z,42.15
2022-12-01T17:43:40.016Z,40.12
2022-12-01T17:46:09.518Z,40.88
2022-12-01T17:48:39.669Z,35.97
2022-12-01T17:51:09.892Z,34.22
2022-12-01T17:53:39.490Z,34.35
2022-12-01T17:56:13.924Z,35.00
2022-12-01T17:58:42.422Z,34.20
2022-12-01T18:01:16.109Z,34.88
2022-12-01T18:03:44.709Z,34.35
2022-12-01T18:06:12.638Z,35.33
2022-12-01T18:08:40.881Z,33.92
2022-12-01T18:11:11.957Z,33.40
2022-12-01T18:13:42.241Z,31.45
2022-12-01T18:16:12.889Z,32.30
2022-12-01T18:18:40.526Z,32.42
2022-12-01T18:21:11.437Z,30.52
2022-12-01T18:23:39.780Z,31.27
2022-12-01T18:26:15.708Z,28.17
2022-12-01T18:28:44.452Z,28.87
2022-12-01T18:31:15.886Z,30.00
2022-12-01T18:33:45.112Z,29.10
2022-12-01T18:36:18.716Z,31.30
2022-12-01T18:38:47.702Z,31.17
2022-12-01T18:41:16.905Z,37.53
2022-12-01T18:46:29.933Z,45.00
2022-12-01T18:49:02.357Z,42.42
2022-12-01T18:51:35.368Z,41.60
2022-12-01T18:54:07.200Z,49.35
2022-12-01T18:56:35.384Z,56.83
2022-12-01T18:59:07.586Z,55.28
2022-12-01T19:01:37.979Z,49.97
2022-12-01T19:04:07.892Z,51.00
2022-12-01T19:06:37.458Z,50.65
2022-12-01T19:09:06.868Z,46.28
2022-12-01T19:11:34.701Z,47.22
2022-12-01T19:14:03.977Z,43.92
2022-12-01T19:16:31.959Z,43.92
2022-12-01T19:19:01.880Z,43.53
2022-12-01T19:21:36.480Z,43.08
2022-12-01T19:24:04.578Z,42.80
2022-12-01T19:26:32.726Z,42.75
2022-12-01T19:29:00.782Z,43.08
2022-12-01T19:31:28.858Z,35.83
2022-12-01T19:33:57.045Z,35.80
2022-12-01T19:36:28.125Z,40.60
2022-12-01T19:38:57.638Z,39.33
2022-12-01T19:41:26.444Z,50.95
2022-12-01T19:43:56.307Z,44.72
2022-12-01T19:46:25.909Z,37.97
2022-12-01T19:49:00.692Z,38.42
2022-12-01T19:51:32.533Z,41.97
2022-12-01T19:54:03.077Z,38.72
2022-12-01T19:56:31.732Z,41.03
2022-12-01T19:59:00.965Z,39.58
2022-12-01T20:01:29.464Z,36.78
2022-12-01T20:03:57.849Z,36.30
2022-12-01T20:06:29.620Z,37.90
2022-12-01T20:08:59.941Z,38.55
2022-12-01T20:11:30.243Z,40.47
2022-12-01T20:13:57.901Z,47.50
2022-12-01T20:16:27.204Z,49.30
2022-12-01T20:18:55.451Z,48.92
2022-12-01T20:21:28.107Z,50.65
2022-12-01T20:24:00.638Z,40.78
2022-12-01T20:26:34.085Z,35.60
2022-12-01T20:29:08.423Z,35.65
2022-12-01T20:31:37.267Z,36.30
2022-12-01T20:34:13.694Z,39.45
2022-12-01T20:36:41.881Z,33.88
2022-12-01T20:39:10.174Z,31.40
2022-12-01T20:41:38.897Z,33.40
2022-12-01T20:44:07.937Z,35.70
2022-12-01T20:46:37.361Z,33.17
2022-12-01T20:49:08.322Z,29.17
2022-12-01T20:51:36.771Z,31.23
2022-12-01T20:56:54.985Z,31.20
2022-12-01T20:59:22.620Z,33.17
2022-12-01T21:01:50.412Z,30.55
2022-12-01T21:04:18.153Z,29.17
2022-12-01T21:06:46.794Z,30.42
2022-12-01T21:09:15.243Z,27.48
2022-12-01T21:12:07.280Z,29.20
2022-12-01T21:15:00.211Z,28.10
2022-12-01T21:17:36.576Z,27.95
2022-12-01T21:20:09.206Z,28.23
2022-12-01T21:22:37.010Z,28.42
2022-12-01T21:25:12.443Z,27.00
2022-12-01T21:27:40.092Z,27.75
2022-12-01T21:30:16.309Z,26.90
2022-12-01T21:32:44.681Z,28.77
2022-12-01T21:35:20.828Z,28.65
2022-12-01T21:37:49.283Z,29.55
2022-12-01T21:40:19.266Z,30.10
2022-12-01T21:42:46.635Z,35.13
2022-12-01T21:45:18.238Z,33.28
2022-12-01T21:47:45.571Z,3.35
2022-12-01T21:50:21.079Z,29.80
2022-12-01T21:52:49.110Z,30.83
2022-12-01T21:55:16.337Z,4.15
2022-12-01T21:57:48.404Z,30.62
2022-12-01T22:00:29.619Z,30.62
2022-12-01T22:03:00.307Z,32.42
2022-12-01T22:05:37.341Z,31.73
2022-12-01T22:08:07.726Z,31.37
2022-12-01T22:11:01.355Z,30.45
2022-12-01T22:13:44.188Z,28.33
2022-12-01T22:16:23.545Z,27.25
2022-12-01T22:18:54.050Z,28.10
2022-12-01T22:21:30.539Z,28.35
2022-12-01T22:24:06.011Z,28.27
2022-12-01T22:26:35.885Z,26.55
2022-12-01T22:29:16.611Z,28.85
2022-12-01T22:31:44.862Z,30.17
2022-12-01T22:34:14.186Z,28.65
2022-12-01T22:36:41.651Z,31.92
2022-12-01T22:39:26.270Z,31.35
2022-12-01T22:41:59.004Z,29.05
2022-12-01T22:44:28.039Z,29.77
2022-12-01T22:46:59.967Z,28.92
2022-12-01T22:49:29.801Z,30.40
2022-12-01T22:52:01.123Z,29.00
2022-12-01T22:54:39.062Z,27.40
2022-12-01T22:57:25.146Z,27.60
2022-12-01T22:59:53.151Z,27.37
2022-12-01T23:02:31.930Z,28.23
2022-12-01T23:05:01.554Z,26.05
2022-12-01T23:07:37.193Z,27.17
2022-12-01T23:10:20.836Z,25.80
2022-12-01T23:12:50.617Z,27.77
2022-12-01T23:15:34.913Z,26.77
2022-12-01T23:18:27.000Z,32.63
2022-12-01T23:20:58.937Z,27.73
2022-12-01T23:23:32.147Z,29.98
2022-12-01T23:26:01.780Z,32.22
2022-12-01T23:28:29.634Z,35.35
2022-12-01T23:30:58.932Z,4.53
2022-12-01T23:33:28.566Z,35.42
2022-12-01T23:35:59.880Z,33.80
2022-12-01T23:38:39.121Z,32.72
2022-12-01T23:41:23.972Z,30.88
2022-12-01T23:43:54.123Z,32.50
2022-12-01T23:46:24.545Z,32.97
2022-12-01T23:48:56.041Z,31.62
2022-12-01T23:51:50.295Z,33.08
2022-12-01T23:54:25.734Z,32.33
2022-12-01T23:56:56.165Z,31.65
2022-12-01T23:59:23.864Z,31.80
